Waverly, Colorado
Current Conditions -  °F | °C
As of 5:52 AM on Wednesday 22 Oct 2014 (Local Time) from KALS Reporting Station
Clear Clear  
Wind Chill: 30°   Ceiling: Unl
Heat Index: 30°   Visibility: 10mi
Dew Point: 28°   Wind: 0mph
Humidity: 92%   Direction: NA
Pressure: 30.2"   Gusts: NA
Location:  37.469°N, 105.836°W
Report Text: KALS 221152Z AUTO 00000KT 10SM CLR M01/M02 A3020 RMK AO2 SLP191 70001 T10111022 10094 21011 53009
Loading
Personal Weather Stations






























Interactive Weather Map
Tropical Storm Tracking
New forecast layout! Learn more

10-Day Weather Forecast

Advertisements
Track Severe Weather on mobile